sensor_id;sensor_type;location;lat;lon;timestamp;temperature;humidity
8792;DHT22;4432;50.890;4.744;2022-08-19T00:01:47;17.60;99.90
8792;DHT22;4432;50.890;4.744;2022-08-19T00:04:15;17.60;99.90
8792;DHT22;4432;50.890;4.744;2022-08-19T00:06:43;17.50;99.90
8792;DHT22;4432;50.890;4.744;2022-08-19T00:09:12;17.50;99.90
8792;DHT22;4432;50.890;4.744;2022-08-19T00:11:38;17.50;99.90
8792;DHT22;4432;50.890;4.744;2022-08-19T00:14:06;17.50;99.90
8792;DHT22;4432;50.890;4.744;2022-08-19T00:16:34;17.40;99.90
8792;DHT22;4432;50.890;4.744;2022-08-19T00:18:59;17.40;99.90
8792;DHT22;4432;50.890;4.744;2022-08-19T00:21:26;17.40;99.90
8792;DHT22;4432;50.890;4.744;2022-08-19T00:23:55;17.40;99.90
8792;DHT22;4432;50.890;4.744;2022-08-19T00:26:24;17.40;99.90
8792;DHT22;4432;50.890;4.744;2022-08-19T00:28:50;17.30;99.90
8792;DHT22;4432;50.890;4.744;2022-08-19T00:31:16;17.30;99.90
8792;DHT22;4432;50.890;4.744;2022-08-19T00:33:42;17.30;99.90
8792;DHT22;4432;50.890;4.744;2022-08-19T00:36:09;17.30;99.90
8792;DHT22;4432;50.890;4.744;2022-08-19T00:38:37;17.30;99.90
8792;DHT22;4432;50.890;4.744;2022-08-19T00:41:05;17.30;99.90
8792;DHT22;4432;50.890;4.744;2022-08-19T00:43:31;17.30;99.90
8792;DHT22;4432;50.890;4.744;2022-08-19T00:45:57;17.30;99.90
8792;DHT22;4432;50.890;4.744;2022-08-19T00:48:23;17.20;99.90
8792;DHT22;4432;50.890;4.744;2022-08-19T00:50:50;17.20;99.90
8792;DHT22;4432;50.890;4.744;2022-08-19T00:53:20;17.20;99.90
8792;DHT22;4432;50.890;4.744;2022-08-19T00:55:48;17.20;99.90
8792;DHT22;4432;50.890;4.744;2022-08-19T00:58:17;17.20;99.90
8792;DHT22;4432;50.890;4.744;2022-08-19T01:00:45;17.20;99.90
8792;DHT22;4432;50.890;4.744;2022-08-19T01:03:14;17.20;99.90
8792;DHT22;4432;50.890;4.744;2022-08-19T01:05:42;17.20;99.90
8792;DHT22;4432;50.890;4.744;2022-08-19T01:08:09;17.30;99.90
8792;DHT22;4432;50.890;4.744;2022-08-19T01:10:50;17.40;99.90
8792;DHT22;4432;50.890;4.744;2022-08-19T01:13:21;17.40;99.90
8792;DHT22;4432;50.890;4.744;2022-08-19T01:15:53;17.40;99.90
8792;DHT22;4432;50.890;4.744;2022-08-19T01:18:21;17.60;99.90
8792;DHT22;4432;50.890;4.744;2022-08-19T01:20:47;17.70;99.90
8792;DHT22;4432;50.890;4.744;2022-08-19T01:23:13;17.80;99.90
8792;DHT22;4432;50.890;4.744;2022-08-19T01:25:47;17.80;99.90
8792;DHT22;4432;50.890;4.744;2022-08-19T01:28:22;17.80;99.90
8792;DHT22;4432;50.890;4.744;2022-08-19T01:30:48;17.90;99.90
8792;DHT22;4432;50.890;4.744;2022-08-19T01:33:14;17.90;99.90
8792;DHT22;4432;50.890;4.744;2022-08-19T01:35:40;17.80;99.90
8792;DHT22;4432;50.890;4.744;2022-08-19T01:38:09;17.90;99.90
8792;DHT22;4432;50.890;4.744;2022-08-19T01:40:38;17.80;99.90
8792;DHT22;4432;50.890;4.744;2022-08-19T01:43:05;17.80;99.90
8792;DHT22;4432;50.890;4.744;2022-08-19T01:45:34;17.70;99.90
8792;DHT22;4432;50.890;4.744;2022-08-19T01:48:01;17.70;99.90
8792;DHT22;4432;50.890;4.744;2022-08-19T01:50:27;17.70;99.90
8792;DHT22;4432;50.890;4.744;2022-08-19T01:52:53;17.60;99.90
8792;DHT22;4432;50.890;4.744;2022-08-19T01:55:21;17.60;99.90
8792;DHT22;4432;50.890;4.744;2022-08-19T01:57:51;17.60;99.90
8792;DHT22;4432;50.890;4.744;2022-08-19T02:00:20;17.50;99.90
8792;DHT22;4432;50.890;4.744;2022-08-19T02:02:46;17.50;99.90
8792;DHT22;4432;50.890;4.744;2022-08-19T02:05:14;17.50;99.90
8792;DHT22;4432;50.890;4.744;2022-08-19T02:07:40;17.50;99.90
8792;DHT22;4432;50.890;4.744;2022-08-19T02:10:12;17.40;99.90
8792;DHT22;4432;50.890;4.744;2022-08-19T02:12:39;17.40;99.90
8792;DHT22;4432;50.890;4.744;2022-08-19T02:15:05;17.40;99.90
8792;DHT22;4432;50.890;4.744;2022-08-19T02:17:31;17.40;99.90
8792;DHT22;4432;50.890;4.744;2022-08-19T02:19:57;17.30;99.90
8792;DHT22;4432;50.890;4.744;2022-08-19T02:22:24;17.30;99.90
8792;DHT22;4432;50.890;4.744;2022-08-19T02:24:52;17.30;99.90
8792;DHT22;4432;50.890;4.744;2022-08-19T02:27:18;17.30;99.90
8792;DHT22;4432;50.890;4.744;2022-08-19T02:29:46;17.20;99.90
8792;DHT22;4432;50.890;4.744;2022-08-19T02:32:12;17.20;99.90
8792;DHT22;4432;50.890;4.744;2022-08-19T02:34:39;17.10;99.90
8792;DHT22;4432;50.890;4.744;2022-08-19T02:37:05;17.00;99.90
8792;DHT22;4432;50.890;4.744;2022-08-19T02:39:30;17.00;99.90
8792;DHT22;4432;50.890;4.744;2022-08-19T02:41:56;16.90;99.90
8792;DHT22;4432;50.890;4.744;2022-08-19T02:44:24;16.90;99.90
8792;DHT22;4432;50.890;4.744;2022-08-19T02:46:50;16.80;99.90
8792;DHT22;4432;50.890;4.744;2022-08-19T02:49:16;16.80;99.90
8792;DHT22;4432;50.890;4.744;2022-08-19T02:51:44;16.70;99.90
8792;DHT22;4432;50.890;4.744;2022-08-19T02:54:11;16.70;99.90
8792;DHT22;4432;50.890;4.744;2022-08-19T02:56:40;16.70;99.90
8792;DHT22;4432;50.890;4.744;2022-08-19T02:59:06;16.70;99.90
8792;DHT22;4432;50.890;4.744;2022-08-19T03:01:35;16.60;99.90
8792;DHT22;4432;50.890;4.744;2022-08-19T03:04:04;16.60;99.90
8792;DHT22;4432;50.890;4.744;2022-08-19T03:06:30;16.60;99.90
8792;DHT22;4432;50.890;4.744;2022-08-19T03:08:57;16.60;99.90
8792;DHT22;4432;50.890;4.744;2022-08-19T03:11:28;16.50;99.90
8792;DHT22;4432;50.890;4.744;2022-08-19T03:13:56;16.50;99.90
8792;DHT22;4432;50.890;4.744;2022-08-19T03:16:24;16.40;99.90
8792;DHT22;4432;50.890;4.744;2022-08-19T03:18:50;16.30;99.90
8792;DHT22;4432;50.890;4.744;2022-08-19T03:21:22;16.40;99.90
8792;DHT22;4432;50.890;4.744;2022-08-19T03:23:49;16.30;99.90
8792;DHT22;4432;50.890;4.744;2022-08-19T03:26:15;16.20;99.90
8792;DHT22;4432;50.890;4.744;2022-08-19T03:28:42;16.20;99.90
8792;DHT22;4432;50.890;4.744;2022-08-19T03:31:13;16.20;99.90
8792;DHT22;4432;50.890;4.744;2022-08-19T03:33:39;16.20;99.90
8792;DHT22;4432;50.890;4.744;2022-08-19T03:36:12;16.20;99.90
8792;DHT22;4432;50.890;4.744;2022-08-19T03:38:41;16.10;99.90
8792;DHT22;4432;50.890;4.744;2022-08-19T03:41:17;16.10;99.90
8792;DHT22;4432;50.890;4.744;2022-08-19T03:43:44;16.00;99.90
8792;DHT22;4432;50.890;4.744;2022-08-19T03:46:17;16.00;99.90
8792;DHT22;4432;50.890;4.744;2022-08-19T03:48:44;16.00;99.90
8792;DHT22;4432;50.890;4.744;2022-08-19T03:51:19;16.00;99.90
8792;DHT22;4432;50.890;4.744;2022-08-19T03:53:46;16.10;99.90
8792;DHT22;4432;50.890;4.744;2022-08-19T03:56:12;16.10;99.90
8792;DHT22;4432;50.890;4.744;2022-08-19T03:58:38;16.20;99.90
8792;DHT22;4432;50.890;4.744;2022-08-19T04:01:15;16.20;99.90
8792;DHT22;4432;50.890;4.744;2022-08-19T04:03:41;16.30;99.90
8792;DHT22;4432;50.890;4.744;2022-08-19T04:06:16;16.30;99.90
8792;DHT22;4432;50.890;4.744;2022-08-19T04:08:44;16.30;99.90
8792;DHT22;4432;50.890;4.744;2022-08-19T04:11:13;16.20;99.90
8792;DHT22;4432;50.890;4.744;2022-08-19T04:13:40;16.30;99.90
8792;DHT22;4432;50.890;4.744;2022-08-19T04:16:07;16.20;99.90
8792;DHT22;4432;50.890;4.744;2022-08-19T04:18:36;16.20;99.90
8792;DHT22;4432;50.890;4.744;2022-08-19T04:21:02;16.20;99.90
8792;DHT22;4432;50.890;4.744;2022-08-19T04:23:28;16.20;99.90
8792;DHT22;4432;50.890;4.744;2022-08-19T04:25:54;16.20;99.90
8792;DHT22;4432;50.890;4.744;2022-08-19T04:28:21;16.20;99.90
8792;DHT22;4432;50.890;4.744;2022-08-19T04:30:52;16.20;99.90
8792;DHT22;4432;50.890;4.744;2022-08-19T04:33:22;16.30;99.90
8792;DHT22;4432;50.890;4.744;2022-08-19T04:35:49;16.20;99.90
8792;DHT22;4432;50.890;4.744;2022-08-19T04:38:17;16.20;99.90
8792;DHT22;4432;50.890;4.744;2022-08-19T04:40:48;16.20;99.90
8792;DHT22;4432;50.890;4.744;2022-08-19T04:43:35;16.20;99.90
8792;DHT22;4432;50.890;4.744;2022-08-19T04:46:09;16.20;99.90
8792;DHT22;4432;50.890;4.744;2022-08-19T04:48:36;16.20;99.90
8792;DHT22;4432;50.890;4.744;2022-08-19T04:51:06;16.20;99.90
8792;DHT22;4432;50.890;4.744;2022-08-19T04:53:34;16.20;99.90
8792;DHT22;4432;50.890;4.744;2022-08-19T04:56:06;16.20;99.90
8792;DHT22;4432;50.890;4.744;2022-08-19T04:58:33;16.20;99.90
8792;DHT22;4432;50.890;4.744;2022-08-19T05:00:59;16.20;99.90
8792;DHT22;4432;50.890;4.744;2022-08-19T05:03:26;16.30;99.90
8792;DHT22;4432;50.890;4.744;2022-08-19T05:05:52;16.30;99.90
8792;DHT22;4432;50.890;4.744;2022-08-19T05:08:20;16.30;99.90
8792;DHT22;4432;50.890;4.744;2022-08-19T05:10:49;16.40;99.90
8792;DHT22;4432;50.890;4.744;2022-08-19T05:13:17;16.40;99.90
8792;DHT22;4432;50.890;4.744;2022-08-19T05:15:44;16.50;99.90
8792;DHT22;4432;50.890;4.744;2022-08-19T05:18:18;16.50;99.90
8792;DHT22;4432;50.890;4.744;2022-08-19T05:21:07;16.60;99.90
8792;DHT22;4432;50.890;4.744;2022-08-19T05:23:51;16.70;99.90
8792;DHT22;4432;50.890;4.744;2022-08-19T05:26:17;16.80;99.90
8792;DHT22;4432;50.890;4.744;2022-08-19T05:28:43;16.80;99.90
8792;DHT22;4432;50.890;4.744;2022-08-19T05:31:09;16.90;99.90
8792;DHT22;4432;50.890;4.744;2022-08-19T05:33:34;16.90;99.90
8792;DHT22;4432;50.890;4.744;2022-08-19T05:36:01;16.90;99.90
8792;DHT22;4432;50.890;4.744;2022-08-19T05:38:28;17.10;99.90
8792;DHT22;4432;50.890;4.744;2022-08-19T05:40:55;17.10;99.90
8792;DHT22;4432;50.890;4.744;2022-08-19T05:43:21;17.20;99.90
8792;DHT22;4432;50.890;4.744;2022-08-19T05:45:47;17.30;99.90
8792;DHT22;4432;50.890;4.744;2022-08-19T05:48:13;17.30;99.90
8792;DHT22;4432;50.890;4.744;2022-08-19T05:50:40;17.40;99.90
8792;DHT22;4432;50.890;4.744;2022-08-19T05:53:07;17.40;99.90
8792;DHT22;4432;50.890;4.744;2022-08-19T05:55:34;17.40;99.90
8792;DHT22;4432;50.890;4.744;2022-08-19T05:58:00;17.40;99.90
8792;DHT22;4432;50.890;4.744;2022-08-19T06:00:27;17.50;99.90
8792;DHT22;4432;50.890;4.744;2022-08-19T06:02:56;17.60;99.90
8792;DHT22;4432;50.890;4.744;2022-08-19T06:05:29;17.60;99.90
8792;DHT22;4432;50.890;4.744;2022-08-19T06:07:55;17.70;99.90
8792;DHT22;4432;50.890;4.744;2022-08-19T06:10:21;17.80;99.90
8792;DHT22;4432;50.890;4.744;2022-08-19T06:12:47;18.00;99.90
8792;DHT22;4432;50.890;4.744;2022-08-19T06:15:14;18.00;99.90
8792;DHT22;4432;50.890;4.744;2022-08-19T06:17:41;18.20;99.90
8792;DHT22;4432;50.890;4.744;2022-08-19T06:20:11;18.30;99.90
8792;DHT22;4432;50.890;4.744;2022-08-19T06:22:40;18.50;99.90
8792;DHT22;4432;50.890;4.744;2022-08-19T06:25:07;18.50;99.90
8792;DHT22;4432;50.890;4.744;2022-08-19T06:27:34;18.50;99.90
8792;DHT22;4432;50.890;4.744;2022-08-19T06:30:01;18.60;99.90
8792;DHT22;4432;50.890;4.744;2022-08-19T06:32:28;18.60;99.90
8792;DHT22;4432;50.890;4.744;2022-08-19T06:34:54;18.60;99.90
8792;DHT22;4432;50.890;4.744;2022-08-19T06:37:20;18.70;99.90
8792;DHT22;4432;50.890;4.744;2022-08-19T06:39:47;18.80;99.90
8792;DHT22;4432;50.890;4.744;2022-08-19T06:42:14;18.90;99.90
8792;DHT22;4432;50.890;4.744;2022-08-19T06:44:44;19.10;99.90
8792;DHT22;4432;50.890;4.744;2022-08-19T06:47:13;19.10;99.90
8792;DHT22;4432;50.890;4.744;2022-08-19T06:49:39;19.30;99.90
8792;DHT22;4432;50.890;4.744;2022-08-19T06:52:05;19.40;99.90
8792;DHT22;4432;50.890;4.744;2022-08-19T06:54:31;19.60;99.90
8792;DHT22;4432;50.890;4.744;2022-08-19T06:56:58;19.90;99.90
8792;DHT22;4432;50.890;4.744;2022-08-19T06:59:28;20.00;99.90
8792;DHT22;4432;50.890;4.744;2022-08-19T07:02:00;20.00;99.90
8792;DHT22;4432;50.890;4.744;2022-08-19T07:04:28;20.10;99.90
8792;DHT22;4432;50.890;4.744;2022-08-19T07:07:09;20.00;99.90
8792;DHT22;4432;50.890;4.744;2022-08-19T07:09:41;19.90;99.90
8792;DHT22;4432;50.890;4.744;2022-08-19T07:12:09;19.90;99.90
8792;DHT22;4432;50.890;4.744;2022-08-19T07:14:37;20.10;99.90
8792;DHT22;4432;50.890;4.744;2022-08-19T07:17:05;20.20;99.90
8792;DHT22;4432;50.890;4.744;2022-08-19T07:19:32;20.40;99.90
8792;DHT22;4432;50.890;4.744;2022-08-19T07:21:58;20.50;99.90
8792;DHT22;4432;50.890;4.744;2022-08-19T07:24:27;20.50;99.90
8792;DHT22;4432;50.890;4.744;2022-08-19T07:26:58;20.50;99.90
8792;DHT22;4432;50.890;4.744;2022-08-19T07:29:27;20.70;99.90
8792;DHT22;4432;50.890;4.744;2022-08-19T07:31:54;20.80;99.90
8792;DHT22;4432;50.890;4.744;2022-08-19T07:34:25;20.80;99.90
8792;DHT22;4432;50.890;4.744;2022-08-19T07:36:51;21.00;99.90
8792;DHT22;4432;50.890;4.744;2022-08-19T07:39:22;21.10;99.90
8792;DHT22;4432;50.890;4.744;2022-08-19T07:41:49;21.20;99.90
8792;DHT22;4432;50.890;4.744;2022-08-19T07:44:17;21.20;99.90
8792;DHT22;4432;50.890;4.744;2022-08-19T07:46:49;21.30;99.90
8792;DHT22;4432;50.890;4.744;2022-08-19T07:49:17;21.80;99.90
8792;DHT22;4432;50.890;4.744;2022-08-19T07:51:50;22.10;99.90
8792;DHT22;4432;50.890;4.744;2022-08-19T07:54:17;22.40;99.90
8792;DHT22;4432;50.890;4.744;2022-08-19T07:56:43;22.20;99.90
8792;DHT22;4432;50.890;4.744;2022-08-19T07:59:09;22.30;99.90
8792;DHT22;4432;50.890;4.744;2022-08-19T08:01:36;22.30;99.90
8792;DHT22;4432;50.890;4.744;2022-08-19T08:04:02;22.40;99.90
8792;DHT22;4432;50.890;4.744;2022-08-19T08:06:47;22.50;99.90
8792;DHT22;4432;50.890;4.744;2022-08-19T08:09:36;22.80;99.90
8792;DHT22;4432;50.890;4.744;2022-08-19T08:14:52;22.60;99.90
8792;DHT22;4432;50.890;4.744;2022-08-19T08:17:21;22.40;99.90
8792;DHT22;4432;50.890;4.744;2022-08-19T08:19:48;22.50;99.90
8792;DHT22;4432;50.890;4.744;2022-08-19T08:22:19;22.80;99.90
8792;DHT22;4432;50.890;4.744;2022-08-19T08:25:16;23.00;99.90
8792;DHT22;4432;50.890;4.744;2022-08-19T08:27:43;23.00;99.90
8792;DHT22;4432;50.890;4.744;2022-08-19T08:30:19;23.60;99.90
8792;DHT22;4432;50.890;4.744;2022-08-19T08:32:45;24.10;99.90
8792;DHT22;4432;50.890;4.744;2022-08-19T08:35:13;24.30;99.90
8792;DHT22;4432;50.890;4.744;2022-08-19T08:37:39;24.40;99.90
8792;DHT22;4432;50.890;4.744;2022-08-19T08:40:45;23.90;99.90
8792;DHT22;4432;50.890;4.744;2022-08-19T08:43:30;23.70;99.90
8792;DHT22;4432;50.890;4.744;2022-08-19T08:48:40;23.50;99.90
8792;DHT22;4432;50.890;4.744;2022-08-19T08:51:11;23.60;99.90
8792;DHT22;4432;50.890;4.744;2022-08-19T08:53:39;23.70;99.90
8792;DHT22;4432;50.890;4.744;2022-08-19T08:56:08;24.00;99.90
8792;DHT22;4432;50.890;4.744;2022-08-19T08:58:48;24.60;99.90
8792;DHT22;4432;50.890;4.744;2022-08-19T09:01:16;25.10;99.90
8792;DHT22;4432;50.890;4.744;2022-08-19T09:03:43;25.00;99.90
8792;DHT22;4432;50.890;4.744;2022-08-19T09:14:19;24.30;99.90
8792;DHT22;4432;50.890;4.744;2022-08-19T09:16:47;24.40;99.90
8792;DHT22;4432;50.890;4.744;2022-08-19T09:19:15;24.20;99.90
8792;DHT22;4432;50.890;4.744;2022-08-19T09:21:43;24.30;99.90
8792;DHT22;4432;50.890;4.744;2022-08-19T09:24:10;23.60;99.90
8792;DHT22;4432;50.890;4.744;2022-08-19T09:26:36;23.50;99.90
8792;DHT22;4432;50.890;4.744;2022-08-19T09:29:02;23.50;99.90
8792;DHT22;4432;50.890;4.744;2022-08-19T09:31:31;23.40;99.90
8792;DHT22;4432;50.890;4.744;2022-08-19T09:33:58;23.80;99.90
8792;DHT22;4432;50.890;4.744;2022-08-19T09:36:27;24.40;99.90
8792;DHT22;4432;50.890;4.744;2022-08-19T09:38:55;24.60;99.90
8792;DHT22;4432;50.890;4.744;2022-08-19T09:41:23;24.40;99.90
8792;DHT22;4432;50.890;4.744;2022-08-19T09:43:51;23.90;99.90
8792;DHT22;4432;50.890;4.744;2022-08-19T09:46:24;23.80;99.90
8792;DHT22;4432;50.890;4.744;2022-08-19T09:48:50;23.60;99.90
8792;DHT22;4432;50.890;4.744;2022-08-19T09:51:23;23.70;99.90
8792;DHT22;4432;50.890;4.744;2022-08-19T09:53:50;23.70;99.90
8792;DHT22;4432;50.890;4.744;2022-08-19T09:56:18;24.10;99.90
8792;DHT22;4432;50.890;4.744;2022-08-19T09:58:44;24.20;99.90
8792;DHT22;4432;50.890;4.744;2022-08-19T10:01:20;24.60;99.90
8792;DHT22;4432;50.890;4.744;2022-08-19T10:03:49;24.60;99.90
8792;DHT22;4432;50.890;4.744;2022-08-19T10:06:17;24.60;99.90
8792;DHT22;4432;50.890;4.744;2022-08-19T10:08:44;24.50;99.90
8792;DHT22;4432;50.890;4.744;2022-08-19T10:11:10;24.60;99.90
8792;DHT22;4432;50.890;4.744;2022-08-19T10:13:36;24.50;99.90
8792;DHT22;4432;50.890;4.744;2022-08-19T10:16:08;24.50;99.90
8792;DHT22;4432;50.890;4.744;2022-08-19T10:18:35;24.30;99.90
8792;DHT22;4432;50.890;4.744;2022-08-19T10:21:07;24.50;99.90
8792;DHT22;4432;50.890;4.744;2022-08-19T10:23:36;24.00;99.90
8792;DHT22;4432;50.890;4.744;2022-08-19T10:26:04;24.20;99.90
8792;DHT22;4432;50.890;4.744;2022-08-19T10:28:34;24.40;99.90
8792;DHT22;4432;50.890;4.744;2022-08-19T10:31:14;24.80;99.90
8792;DHT22;4432;50.890;4.744;2022-08-19T10:33:41;25.00;99.90
8792;DHT22;4432;50.890;4.744;2022-08-19T10:36:13;25.00;99.90
8792;DHT22;4432;50.890;4.744;2022-08-19T10:38:47;25.10;99.90
8792;DHT22;4432;50.890;4.744;2022-08-19T10:41:19;25.10;99.90
8792;DHT22;4432;50.890;4.744;2022-08-19T10:43:45;25.10;99.90
8792;DHT22;4432;50.890;4.744;2022-08-19T10:46:13;25.20;99.90
8792;DHT22;4432;50.890;4.744;2022-08-19T10:48:40;25.10;99.90
8792;DHT22;4432;50.890;4.744;2022-08-19T10:51:06;25.20;99.90
8792;DHT22;4432;50.890;4.744;2022-08-19T10:53:51;24.90;99.90
8792;DHT22;4432;50.890;4.744;2022-08-19T10:56:17;24.80;99.90
8792;DHT22;4432;50.890;4.744;2022-08-19T10:59:03;24.90;99.90
8792;DHT22;4432;50.890;4.744;2022-08-19T11:01:30;25.00;99.90
8792;DHT22;4432;50.890;4.744;2022-08-19T11:04:00;25.30;99.90
8792;DHT22;4432;50.890;4.744;2022-08-19T11:06:25;25.60;99.90
8792;DHT22;4432;50.890;4.744;2022-08-19T11:08:53;25.70;99.90
8792;DHT22;4432;50.890;4.744;2022-08-19T11:11:20;25.80;99.90
8792;DHT22;4432;50.890;4.744;2022-08-19T11:13:47;25.70;99.90
8792;DHT22;4432;50.890;4.744;2022-08-19T11:16:22;25.40;99.90
8792;DHT22;4432;50.890;4.744;2022-08-19T11:18:53;25.20;99.90
8792;DHT22;4432;50.890;4.744;2022-08-19T11:21:22;25.20;99.90
8792;DHT22;4432;50.890;4.744;2022-08-19T11:23:52;25.10;99.90
8792;DHT22;4432;50.890;4.744;2022-08-19T11:26:20;24.90;99.90
8792;DHT22;4432;50.890;4.744;2022-08-19T11:28:46;24.80;99.90
8792;DHT22;4432;50.890;4.744;2022-08-19T11:31:15;24.80;99.90
8792;DHT22;4432;50.890;4.744;2022-08-19T11:33:41;24.50;99.90
8792;DHT22;4432;50.890;4.744;2022-08-19T11:36:08;24.50;99.90
8792;DHT22;4432;50.890;4.744;2022-08-19T11:38:35;24.50;99.90
8792;DHT22;4432;50.890;4.744;2022-08-19T11:41:04;24.50;99.90
8792;DHT22;4432;50.890;4.744;2022-08-19T11:43:31;24.70;99.90
8792;DHT22;4432;50.890;4.744;2022-08-19T11:45:57;24.70;99.90
8792;DHT22;4432;50.890;4.744;2022-08-19T11:48:24;24.50;99.90
8792;DHT22;4432;50.890;4.744;2022-08-19T11:50:51;24.50;99.90
8792;DHT22;4432;50.890;4.744;2022-08-19T11:53:19;24.60;99.90
8792;DHT22;4432;50.890;4.744;2022-08-19T11:55:49;24.40;99.90
8792;DHT22;4432;50.890;4.744;2022-08-19T11:58:16;24.20;99.90
8792;DHT22;4432;50.890;4.744;2022-08-19T12:00:43;23.80;99.90
8792;DHT22;4432;50.890;4.744;2022-08-19T12:03:11;23.70;99.90
8792;DHT22;4432;50.890;4.744;2022-08-19T12:05:39;23.80;99.90
8792;DHT22;4432;50.890;4.744;2022-08-19T12:08:05;23.90;99.90
8792;DHT22;4432;50.890;4.744;2022-08-19T12:10:31;24.00;99.90
8792;DHT22;4432;50.890;4.744;2022-08-19T12:12:57;24.00;99.90
8792;DHT22;4432;50.890;4.744;2022-08-19T12:15:23;24.30;99.90
8792;DHT22;4432;50.890;4.744;2022-08-19T12:17:49;24.60;99.90
8792;DHT22;4432;50.890;4.744;2022-08-19T12:20:14;24.50;99.90
8792;DHT22;4432;50.890;4.744;2022-08-19T12:22:43;24.20;99.90
8792;DHT22;4432;50.890;4.744;2022-08-19T12:25:10;24.20;99.90
8792;DHT22;4432;50.890;4.744;2022-08-19T12:27:37;24.20;99.90
8792;DHT22;4432;50.890;4.744;2022-08-19T12:30:05;23.80;99.90
8792;DHT22;4432;50.890;4.744;2022-08-19T12:33:01;23.50;99.90
8792;DHT22;4432;50.890;4.744;2022-08-19T12:35:42;23.80;99.90
8792;DHT22;4432;50.890;4.744;2022-08-19T12:38:17;24.00;99.90
8792;DHT22;4432;50.890;4.744;2022-08-19T12:40:46;24.10;99.90
8792;DHT22;4432;50.890;4.744;2022-08-19T12:43:12;24.50;99.90
8792;DHT22;4432;50.890;4.744;2022-08-19T12:45:42;24.80;99.90
8792;DHT22;4432;50.890;4.744;2022-08-19T12:48:09;24.90;99.90
8792;DHT22;4432;50.890;4.744;2022-08-19T12:50:35;25.50;99.90
8792;DHT22;4432;50.890;4.744;2022-08-19T12:53:01;25.80;99.90
8792;DHT22;4432;50.890;4.744;2022-08-19T12:55:26;26.00;99.90
8792;DHT22;4432;50.890;4.744;2022-08-19T12:57:54;26.00;99.90
8792;DHT22;4432;50.890;4.744;2022-08-19T13:00:21;26.30;99.90
8792;DHT22;4432;50.890;4.744;2022-08-19T13:02:51;25.90;99.90
8792;DHT22;4432;50.890;4.744;2022-08-19T13:05:26;26.20;99.90
8792;DHT22;4432;50.890;4.744;2022-08-19T13:07:53;25.90;99.90
8792;DHT22;4432;50.890;4.744;2022-08-19T13:10:25;26.00;99.90
8792;DHT22;4432;50.890;4.744;2022-08-19T13:12:54;25.90;99.90
8792;DHT22;4432;50.890;4.744;2022-08-19T13:15:21;26.20;99.90
8792;DHT22;4432;50.890;4.744;2022-08-19T13:17:48;26.20;99.90
8792;DHT22;4432;50.890;4.744;2022-08-19T13:20:16;26.10;99.90
8792;DHT22;4432;50.890;4.744;2022-08-19T13:22:42;26.40;99.90
8792;DHT22;4432;50.890;4.744;2022-08-19T13:25:10;26.00;99.90
8792;DHT22;4432;50.890;4.744;2022-08-19T13:27:37;25.60;99.90
8792;DHT22;4432;50.890;4.744;2022-08-19T13:30:10;26.00;99.90
8792;DHT22;4432;50.890;4.744;2022-08-19T13:33:01;26.40;99.90
8792;DHT22;4432;50.890;4.744;2022-08-19T13:35:57;27.00;99.90
8792;DHT22;4432;50.890;4.744;2022-08-19T13:38:23;27.00;99.90
8792;DHT22;4432;50.890;4.744;2022-08-19T13:40:51;27.20;99.90
8792;DHT22;4432;50.890;4.744;2022-08-19T13:43:24;27.60;99.90
8792;DHT22;4432;50.890;4.744;2022-08-19T13:45:55;27.50;99.90
8792;DHT22;4432;50.890;4.744;2022-08-19T13:48:21;27.00;99.90
8792;DHT22;4432;50.890;4.744;2022-08-19T13:50:47;26.80;99.90
8792;DHT22;4432;50.890;4.744;2022-08-19T13:53:14;26.70;99.90
8792;DHT22;4432;50.890;4.744;2022-08-19T13:55:42;26.40;99.90
8792;DHT22;4432;50.890;4.744;2022-08-19T13:58:09;26.70;99.90
8792;DHT22;4432;50.890;4.744;2022-08-19T14:00:39;27.10;99.90
8792;DHT22;4432;50.890;4.744;2022-08-19T14:03:05;27.20;99.90
8792;DHT22;4432;50.890;4.744;2022-08-19T14:05:59;27.40;99.90
8792;DHT22;4432;50.890;4.744;2022-08-19T14:08:30;27.60;99.90
8792;DHT22;4432;50.890;4.744;2022-08-19T14:10:58;27.30;99.90
8792;DHT22;4432;50.890;4.744;2022-08-19T14:13:34;26.90;99.90
8792;DHT22;4432;50.890;4.744;2022-08-19T14:16:28;26.60;99.90
8792;DHT22;4432;50.890;4.744;2022-08-19T14:18:58;26.20;99.90
8792;DHT22;4432;50.890;4.744;2022-08-19T14:21:27;26.30;99.90
8792;DHT22;4432;50.890;4.744;2022-08-19T14:23:56;26.60;99.90
8792;DHT22;4432;50.890;4.744;2022-08-19T14:26:22;26.50;99.90
8792;DHT22;4432;50.890;4.744;2022-08-19T14:28:57;26.60;99.90
8792;DHT22;4432;50.890;4.744;2022-08-19T14:31:35;26.30;99.90
8792;DHT22;4432;50.890;4.744;2022-08-19T14:34:28;26.20;99.90
8792;DHT22;4432;50.890;4.744;2022-08-19T14:37:16;26.40;99.90
8792;DHT22;4432;50.890;4.744;2022-08-19T14:39:42;26.40;99.90
8792;DHT22;4432;50.890;4.744;2022-08-19T14:42:08;26.60;99.90
8792;DHT22;4432;50.890;4.744;2022-08-19T14:45:07;26.80;99.90
8792;DHT22;4432;50.890;4.744;2022-08-19T14:47:59;26.80;99.90
8792;DHT22;4432;50.890;4.744;2022-08-19T14:50:25;26.80;99.90
8792;DHT22;4432;50.890;4.744;2022-08-19T14:52:58;26.60;99.90
8792;DHT22;4432;50.890;4.744;2022-08-19T14:55:24;26.50;99.90
8792;DHT22;4432;50.890;4.744;2022-08-19T14:57:50;26.60;99.90
8792;DHT22;4432;50.890;4.744;2022-08-19T15:00:16;26.40;99.90
8792;DHT22;4432;50.890;4.744;2022-08-19T15:02:42;26.10;99.90
8792;DHT22;4432;50.890;4.744;2022-08-19T15:05:11;25.90;99.90
8792;DHT22;4432;50.890;4.744;2022-08-19T15:07:38;25.70;99.90
8792;DHT22;4432;50.890;4.744;2022-08-19T15:10:05;25.60;99.90
8792;DHT22;4432;50.890;4.744;2022-08-19T15:12:35;25.40;99.90
8792;DHT22;4432;50.890;4.744;2022-08-19T15:15:03;25.30;99.90
8792;DHT22;4432;50.890;4.744;2022-08-19T15:17:28;25.00;99.90
8792;DHT22;4432;50.890;4.744;2022-08-19T15:19:55;24.80;99.90
8792;DHT22;4432;50.890;4.744;2022-08-19T15:22:21;24.60;99.90
8792;DHT22;4432;50.890;4.744;2022-08-19T15:24:47;24.50;99.90
8792;DHT22;4432;50.890;4.744;2022-08-19T15:27:13;23.80;99.90
8792;DHT22;4432;50.890;4.744;2022-08-19T15:29:39;23.70;99.90
8792;DHT22;4432;50.890;4.744;2022-08-19T15:32:06;23.60;99.90
8792;DHT22;4432;50.890;4.744;2022-08-19T15:34:33;23.70;99.90
8792;DHT22;4432;50.890;4.744;2022-08-19T15:37:00;23.80;99.90
8792;DHT22;4432;50.890;4.744;2022-08-19T15:39:27;23.90;99.90
8792;DHT22;4432;50.890;4.744;2022-08-19T15:41:53;23.80;99.90
8792;DHT22;4432;50.890;4.744;2022-08-19T15:44:19;23.70;99.90
8792;DHT22;4432;50.890;4.744;2022-08-19T15:46:47;23.70;99.90
8792;DHT22;4432;50.890;4.744;2022-08-19T15:49:15;23.60;99.90
8792;DHT22;4432;50.890;4.744;2022-08-19T15:51:44;23.40;99.90
8792;DHT22;4432;50.890;4.744;2022-08-19T15:54:13;23.20;99.90
8792;DHT22;4432;50.890;4.744;2022-08-19T15:56:39;23.10;99.90
8792;DHT22;4432;50.890;4.744;2022-08-19T15:59:41;23.00;99.90
8792;DHT22;4432;50.890;4.744;2022-08-19T16:05:52;23.10;99.90
8792;DHT22;4432;50.890;4.744;2022-08-19T16:08:36;23.30;99.90
8792;DHT22;4432;50.890;4.744;2022-08-19T16:11:02;23.30;99.90
8792;DHT22;4432;50.890;4.744;2022-08-19T16:13:28;23.30;99.90
8792;DHT22;4432;50.890;4.744;2022-08-19T16:15:53;23.50;99.90
8792;DHT22;4432;50.890;4.744;2022-08-19T16:18:21;23.70;99.90
8792;DHT22;4432;50.890;4.744;2022-08-19T16:20:47;23.80;99.90
8792;DHT22;4432;50.890;4.744;2022-08-19T16:23:13;23.90;99.90
8792;DHT22;4432;50.890;4.744;2022-08-19T16:25:39;23.90;99.90
8792;DHT22;4432;50.890;4.744;2022-08-19T16:28:04;23.80;99.90
8792;DHT22;4432;50.890;4.744;2022-08-19T16:30:30;23.50;99.90
8792;DHT22;4432;50.890;4.744;2022-08-19T16:32:56;23.50;99.90